sensor_id;sensor_type;location;lat;lon;timestamp;temperature;humidity
26035;DHT22;13809;48.632;11.576;2023-04-03T00:02:34;8.60;37.50
26035;DHT22;13809;48.632;11.576;2023-04-03T00:07:37;8.50;37.70
26035;DHT22;13809;48.632;11.576;2023-04-03T00:12:42;8.50;37.80
26035;DHT22;13809;48.632;11.576;2023-04-03T00:17:45;8.50;37.50
26035;DHT22;13809;48.632;11.576;2023-04-03T00:22:49;8.50;37.50
26035;DHT22;13809;48.632;11.576;2023-04-03T00:27:53;8.50;37.50
26035;DHT22;13809;48.632;11.576;2023-04-03T00:32:57;8.50;37.50
26035;DHT22;13809;48.632;11.576;2023-04-03T00:38:00;8.50;37.60
26035;DHT22;13809;48.632;11.576;2023-04-03T00:43:12;8.50;37.50
26035;DHT22;13809;48.632;11.576;2023-04-03T00:48:18;8.50;36.90
26035;DHT22;13809;48.632;11.576;2023-04-03T00:53:24;8.40;37.20
26035;DHT22;13809;48.632;11.576;2023-04-03T00:58:32;8.40;37.30
26035;DHT22;13809;48.632;11.576;2023-04-03T01:03:36;8.40;37.20
26035;DHT22;13809;48.632;11.576;2023-04-03T01:08:40;8.40;37.50
26035;DHT22;13809;48.632;11.576;2023-04-03T01:13:44;8.30;37.40
26035;DHT22;13809;48.632;11.576;2023-04-03T01:18:48;8.30;37.40
26035;DHT22;13809;48.632;11.576;2023-04-03T01:24:10;8.30;38.20
26035;DHT22;13809;48.632;11.576;2023-04-03T01:29:16;8.30;37.20
26035;DHT22;13809;48.632;11.576;2023-04-03T01:34:22;8.30;37.60
26035;DHT22;13809;48.632;11.576;2023-04-03T01:39:25;8.30;37.60
26035;DHT22;13809;48.632;11.576;2023-04-03T01:44:28;8.30;37.70
26035;DHT22;13809;48.632;11.576;2023-04-03T01:49:33;8.20;37.70
26035;DHT22;13809;48.632;11.576;2023-04-03T01:54:36;8.20;37.70
26035;DHT22;13809;48.632;11.576;2023-04-03T01:59:39;8.20;37.70
26035;DHT22;13809;48.632;11.576;2023-04-03T02:04:43;8.20;37.80
26035;DHT22;13809;48.632;11.576;2023-04-03T02:09:46;8.20;37.70
26035;DHT22;13809;48.632;11.576;2023-04-03T02:14:50;8.20;37.80
26035;DHT22;13809;48.632;11.576;2023-04-03T02:19:54;8.20;37.90
26035;DHT22;13809;48.632;11.576;2023-04-03T02:24:57;8.20;37.90
26035;DHT22;13809;48.632;11.576;2023-04-03T02:30:00;8.20;37.90
26035;DHT22;13809;48.632;11.576;2023-04-03T02:35:06;8.20;37.90
26035;DHT22;13809;48.632;11.576;2023-04-03T02:40:09;8.20;37.80
26035;DHT22;13809;48.632;11.576;2023-04-03T02:45:13;8.20;37.90
26035;DHT22;13809;48.632;11.576;2023-04-03T02:50:18;8.10;37.70
26035;DHT22;13809;48.632;11.576;2023-04-03T02:55:21;8.10;37.60
26035;DHT22;13809;48.632;11.576;2023-04-03T03:00:24;8.10;37.80
26035;DHT22;13809;48.632;11.576;2023-04-03T03:05:29;8.10;37.90
26035;DHT22;13809;48.632;11.576;2023-04-03T03:10:32;8.10;37.70
26035;DHT22;13809;48.632;11.576;2023-04-03T03:15:36;8.10;37.90
26035;DHT22;13809;48.632;11.576;2023-04-03T03:20:40;8.10;37.90
26035;DHT22;13809;48.632;11.576;2023-04-03T03:25:43;8.10;37.80
26035;DHT22;13809;48.632;11.576;2023-04-03T03:30:47;8.00;37.80
26035;DHT22;13809;48.632;11.576;2023-04-03T03:35:51;8.00;37.80
26035;DHT22;13809;48.632;11.576;2023-04-03T03:40:54;8.00;37.60
26035;DHT22;13809;48.632;11.576;2023-04-03T03:45:58;8.00;37.80
26035;DHT22;13809;48.632;11.576;2023-04-03T03:51:02;8.00;37.70
26035;DHT22;13809;48.632;11.576;2023-04-03T03:56:06;8.00;37.60
26035;DHT22;13809;48.632;11.576;2023-04-03T04:01:09;7.90;37.70
26035;DHT22;13809;48.632;11.576;2023-04-03T04:06:13;7.90;37.80
26035;DHT22;13809;48.632;11.576;2023-04-03T04:11:16;7.90;37.60
26035;DHT22;13809;48.632;11.576;2023-04-03T04:16:20;7.80;37.70
26035;DHT22;13809;48.632;11.576;2023-04-03T04:21:24;7.80;37.90
26035;DHT22;13809;48.632;11.576;2023-04-03T04:26:28;7.80;38.60
26035;DHT22;13809;48.632;11.576;2023-04-03T04:31:31;7.70;37.90
26035;DHT22;13809;48.632;11.576;2023-04-03T04:36:36;7.70;37.90
26035;DHT22;13809;48.632;11.576;2023-04-03T04:41:39;7.70;37.90
26035;DHT22;13809;48.632;11.576;2023-04-03T04:46:42;7.60;37.90
26035;DHT22;13809;48.632;11.576;2023-04-03T04:51:47;7.60;37.90
26035;DHT22;13809;48.632;11.576;2023-04-03T04:56:53;7.60;38.00
26035;DHT22;13809;48.632;11.576;2023-04-03T05:01:56;7.50;37.90
26035;DHT22;13809;48.632;11.576;2023-04-03T05:07:00;7.50;38.10
26035;DHT22;13809;48.632;11.576;2023-04-03T05:12:04;7.50;38.10
26035;DHT22;13809;48.632;11.576;2023-04-03T05:17:07;7.50;38.30
26035;DHT22;13809;48.632;11.576;2023-04-03T05:22:11;7.40;38.20
26035;DHT22;13809;48.632;11.576;2023-04-03T05:27:14;7.40;38.20
26035;DHT22;13809;48.632;11.576;2023-04-03T05:32:18;7.40;38.20
26035;DHT22;13809;48.632;11.576;2023-04-03T05:37:23;7.40;38.30
26035;DHT22;13809;48.632;11.576;2023-04-03T05:42:26;7.40;38.20
26035;DHT22;13809;48.632;11.576;2023-04-03T05:47:29;7.50;38.40
26035;DHT22;13809;48.632;11.576;2023-04-03T05:52:37;7.40;38.40
26035;DHT22;13809;48.632;11.576;2023-04-03T05:57:40;7.50;38.20
26035;DHT22;13809;48.632;11.576;2023-04-03T06:02:43;7.50;38.70
26035;DHT22;13809;48.632;11.576;2023-04-03T06:07:48;7.50;38.50
26035;DHT22;13809;48.632;11.576;2023-04-03T06:12:51;7.50;38.80
26035;DHT22;13809;48.632;11.576;2023-04-03T06:17:55;7.50;38.60
26035;DHT22;13809;48.632;11.576;2023-04-03T06:22:59;7.50;38.60
26035;DHT22;13809;48.632;11.576;2023-04-03T06:28:02;7.50;38.40
26035;DHT22;13809;48.632;11.576;2023-04-03T06:33:05;7.50;38.40
26035;DHT22;13809;48.632;11.576;2023-04-03T06:38:10;7.50;38.60
26035;DHT22;13809;48.632;11.576;2023-04-03T06:43:13;7.50;38.60
26035;DHT22;13809;48.632;11.576;2023-04-03T06:48:16;7.50;38.50
26035;DHT22;13809;48.632;11.576;2023-04-03T06:53:21;7.50;38.60
26035;DHT22;13809;48.632;11.576;2023-04-03T06:58:24;7.50;38.40
26035;DHT22;13809;48.632;11.576;2023-04-03T07:03:27;7.50;38.70
26035;DHT22;13809;48.632;11.576;2023-04-03T07:08:32;7.50;38.80
26035;DHT22;13809;48.632;11.576;2023-04-03T07:13:35;7.50;38.70
26035;DHT22;13809;48.632;11.576;2023-04-03T07:18:38;7.60;38.60
26035;DHT22;13809;48.632;11.576;2023-04-03T07:23:43;7.60;38.60
26035;DHT22;13809;48.632;11.576;2023-04-03T07:28:46;7.60;38.70
26035;DHT22;13809;48.632;11.576;2023-04-03T07:33:50;7.60;38.60
26035;DHT22;13809;48.632;11.576;2023-04-03T07:38:54;7.60;38.90
26035;DHT22;13809;48.632;11.576;2023-04-03T07:43:58;7.70;38.90
26035;DHT22;13809;48.632;11.576;2023-04-03T07:49:02;7.80;38.70
26035;DHT22;13809;48.632;11.576;2023-04-03T07:54:06;7.80;38.60
26035;DHT22;13809;48.632;11.576;2023-04-03T07:59:09;7.90;38.70
26035;DHT22;13809;48.632;11.576;2023-04-03T08:04:13;7.90;38.70
26035;DHT22;13809;48.632;11.576;2023-04-03T08:09:18;8.00;38.60
26035;DHT22;13809;48.632;11.576;2023-04-03T08:14:21;8.10;38.50
26035;DHT22;13809;48.632;11.576;2023-04-03T08:19:24;8.20;38.70
26035;DHT22;13809;48.632;11.576;2023-04-03T08:24:29;8.30;38.60
26035;DHT22;13809;48.632;11.576;2023-04-03T08:29:32;8.40;38.30
26035;DHT22;13809;48.632;11.576;2023-04-03T08:34:35;8.40;38.40
26035;DHT22;13809;48.632;11.576;2023-04-03T08:39:42;8.50;38.30
26035;DHT22;13809;48.632;11.576;2023-04-03T08:44:47;8.50;37.90
26035;DHT22;13809;48.632;11.576;2023-04-03T08:49:58;8.60;38.00
26035;DHT22;13809;48.632;11.576;2023-04-03T08:55:05;8.70;37.80
26035;DHT22;13809;48.632;11.576;2023-04-03T09:00:17;8.80;37.60
26035;DHT22;13809;48.632;11.576;2023-04-03T09:05:38;8.80;37.10
26035;DHT22;13809;48.632;11.576;2023-04-03T09:10:44;8.80;37.00
26035;DHT22;13809;48.632;11.576;2023-04-03T09:15:47;8.90;37.20
26035;DHT22;13809;48.632;11.576;2023-04-03T09:20:57;8.90;37.40
26035;DHT22;13809;48.632;11.576;2023-04-03T09:26:06;8.90;36.70
26035;DHT22;13809;48.632;11.576;2023-04-03T09:31:19;8.90;37.00
26035;DHT22;13809;48.632;11.576;2023-04-03T09:36:42;9.00;36.50
26035;DHT22;13809;48.632;11.576;2023-04-03T09:41:58;9.00;36.10
26035;DHT22;13809;48.632;11.576;2023-04-03T09:47:19;9.00;36.00
26035;DHT22;13809;48.632;11.576;2023-04-03T09:52:26;9.10;35.90
26035;DHT22;13809;48.632;11.576;2023-04-03T09:57:33;9.10;36.60
26035;DHT22;13809;48.632;11.576;2023-04-03T10:02:39;9.20;35.70
26035;DHT22;13809;48.632;11.576;2023-04-03T10:07:42;9.20;36.20
26035;DHT22;13809;48.632;11.576;2023-04-03T10:13:11;9.20;36.30
26035;DHT22;13809;48.632;11.576;2023-04-03T10:18:31;9.20;35.00
26035;DHT22;13809;48.632;11.576;2023-04-03T10:23:42;9.20;34.40
26035;DHT22;13809;48.632;11.576;2023-04-03T10:28:56;9.20;34.80
26035;DHT22;13809;48.632;11.576;2023-04-03T10:34:05;9.30;34.40
26035;DHT22;13809;48.632;11.576;2023-04-03T10:39:18;9.40;35.10
26035;DHT22;13809;48.632;11.576;2023-04-03T10:44:35;9.60;34.90
26035;DHT22;13809;48.632;11.576;2023-04-03T10:49:47;9.80;34.30
26035;DHT22;13809;48.632;11.576;2023-04-03T10:55:13;9.90;34.10
26035;DHT22;13809;48.632;11.576;2023-04-03T11:00:27;10.00;32.60
26035;DHT22;13809;48.632;11.576;2023-04-03T11:05:36;10.10;32.70
26035;DHT22;13809;48.632;11.576;2023-04-03T11:10:42;10.10;32.70
26035;DHT22;13809;48.632;11.576;2023-04-03T11:15:49;10.20;33.20
26035;DHT22;13809;48.632;11.576;2023-04-03T11:20:59;10.30;32.60
26035;DHT22;13809;48.632;11.576;2023-04-03T11:26:12;10.40;32.20
26035;DHT22;13809;48.632;11.576;2023-04-03T11:31:38;10.40;31.20
26035;DHT22;13809;48.632;11.576;2023-04-03T11:36:48;10.40;31.00
26035;DHT22;13809;48.632;11.576;2023-04-03T11:41:52;10.40;31.70
26035;DHT22;13809;48.632;11.576;2023-04-03T11:47:44;10.30;31.90
26035;DHT22;13809;48.632;11.576;2023-04-03T11:52:59;10.20;30.70
26035;DHT22;13809;48.632;11.576;2023-04-03T11:58:10;10.10;30.40
26035;DHT22;13809;48.632;11.576;2023-04-03T12:08:56;10.10;30.70
26035;DHT22;13809;48.632;11.576;2023-04-03T12:14:04;10.20;31.40
26035;DHT22;13809;48.632;11.576;2023-04-03T12:19:35;10.20;30.40
26035;DHT22;13809;48.632;11.576;2023-04-03T12:24:46;10.30;30.20
26035;DHT22;13809;48.632;11.576;2023-04-03T12:29:58;10.30;30.70
26035;DHT22;13809;48.632;11.576;2023-04-03T12:35:14;10.40;29.60
26035;DHT22;13809;48.632;11.576;2023-04-03T12:40:26;10.40;29.80
26035;DHT22;13809;48.632;11.576;2023-04-03T12:45:40;10.50;29.90
26035;DHT22;13809;48.632;11.576;2023-04-03T12:50:46;10.70;29.30
26035;DHT22;13809;48.632;11.576;2023-04-03T12:55:55;10.80;30.80
26035;DHT22;13809;48.632;11.576;2023-04-03T13:01:02;10.90;28.90
26035;DHT22;13809;48.632;11.576;2023-04-03T13:06:05;10.90;29.10
26035;DHT22;13809;48.632;11.576;2023-04-03T13:11:11;10.80;30.20
26035;DHT22;13809;48.632;11.576;2023-04-03T13:16:16;10.90;29.40
26035;DHT22;13809;48.632;11.576;2023-04-03T13:21:21;11.00;29.70
26035;DHT22;13809;48.632;11.576;2023-04-03T13:26:30;11.00;29.30
26035;DHT22;13809;48.632;11.576;2023-04-03T13:31:34;11.00;29.00
26035;DHT22;13809;48.632;11.576;2023-04-03T13:36:40;11.00;29.60
26035;DHT22;13809;48.632;11.576;2023-04-03T13:41:47;11.00;29.00
26035;DHT22;13809;48.632;11.576;2023-04-03T13:46:51;11.00;29.00
26035;DHT22;13809;48.632;11.576;2023-04-03T13:51:55;11.10;29.10
26035;DHT22;13809;48.632;11.576;2023-04-03T13:57:15;11.10;29.10
26035;DHT22;13809;48.632;11.576;2023-04-03T14:02:22;11.10;28.30
26035;DHT22;13809;48.632;11.576;2023-04-03T14:07:26;11.10;29.10
26035;DHT22;13809;48.632;11.576;2023-04-03T14:12:33;11.10;29.10
26035;DHT22;13809;48.632;11.576;2023-04-03T14:17:37;11.10;28.30
26035;DHT22;13809;48.632;11.576;2023-04-03T14:22:41;11.10;29.10
26035;DHT22;13809;48.632;11.576;2023-04-03T14:27:49;11.20;29.10
26035;DHT22;13809;48.632;11.576;2023-04-03T14:32:52;11.20;28.40
26035;DHT22;13809;48.632;11.576;2023-04-03T14:37:56;11.20;28.70
26035;DHT22;13809;48.632;11.576;2023-04-03T14:43:00;11.00;28.70
26035;DHT22;13809;48.632;11.576;2023-04-03T14:48:04;11.00;28.00
26035;DHT22;13809;48.632;11.576;2023-04-03T14:53:11;11.00;29.00
26035;DHT22;13809;48.632;11.576;2023-04-03T14:58:20;11.00;28.60
26035;DHT22;13809;48.632;11.576;2023-04-03T15:03:23;11.10;28.40
26035;DHT22;13809;48.632;11.576;2023-04-03T15:08:28;11.10;29.10
26035;DHT22;13809;48.632;11.576;2023-04-03T15:13:33;11.00;28.20
26035;DHT22;13809;48.632;11.576;2023-04-03T15:18:38;11.00;28.10
26035;DHT22;13809;48.632;11.576;2023-04-03T15:23:41;10.90;28.10
26035;DHT22;13809;48.632;11.576;2023-04-03T15:28:46;10.90;28.40
26035;DHT22;13809;48.632;11.576;2023-04-03T15:33:49;10.90;28.10
26035;DHT22;13809;48.632;11.576;2023-04-03T15:38:52;10.90;28.30
26035;DHT22;13809;48.632;11.576;2023-04-03T15:43:57;10.90;28.20
26035;DHT22;13809;48.632;11.576;2023-04-03T15:49:01;10.90;27.70
26035;DHT22;13809;48.632;11.576;2023-04-03T15:54:04;10.90;28.10
26035;DHT22;13809;48.632;11.576;2023-04-03T15:59:09;10.80;28.20
26035;DHT22;13809;48.632;11.576;2023-04-03T16:04:13;10.70;27.70
26035;DHT22;13809;48.632;11.576;2023-04-03T16:09:19;10.70;28.00
26035;DHT22;13809;48.632;11.576;2023-04-03T16:14:23;10.70;28.00
26035;DHT22;13809;48.632;11.576;2023-04-03T16:19:27;10.70;27.60
26035;DHT22;13809;48.632;11.576;2023-04-03T16:24:30;10.70;28.20
26035;DHT22;13809;48.632;11.576;2023-04-03T16:29:35;10.70;27.80
26035;DHT22;13809;48.632;11.576;2023-04-03T16:34:38;10.60;27.60
26035;DHT22;13809;48.632;11.576;2023-04-03T16:39:43;10.60;27.80
26035;DHT22;13809;48.632;11.576;2023-04-03T16:44:48;10.60;27.90
26035;DHT22;13809;48.632;11.576;2023-04-03T16:49:51;10.60;27.60
26035;DHT22;13809;48.632;11.576;2023-04-03T16:54:54;10.50;27.60
26035;DHT22;13809;48.632;11.576;2023-04-03T17:00:01;10.40;27.50
26035;DHT22;13809;48.632;11.576;2023-04-03T17:05:05;10.30;27.30
26035;DHT22;13809;48.632;11.576;2023-04-03T17:10:08;10.30;27.70
26035;DHT22;13809;48.632;11.576;2023-04-03T17:15:14;10.20;27.60
26035;DHT22;13809;48.632;11.576;2023-04-03T17:20:17;10.20;27.40
26035;DHT22;13809;48.632;11.576;2023-04-03T17:25:20;10.10;27.70
26035;DHT22;13809;48.632;11.576;2023-04-03T17:30:24;10.10;27.60
26035;DHT22;13809;48.632;11.576;2023-04-03T17:35:29;10.00;27.30
26035;DHT22;13809;48.632;11.576;2023-04-03T17:40:32;9.90;27.90
26035;DHT22;13809;48.632;11.576;2023-04-03T17:45:37;9.80;28.00
26035;DHT22;13809;48.632;11.576;2023-04-03T17:50:40;9.70;27.80
26035;DHT22;13809;48.632;11.576;2023-04-03T17:55:43;9.60;28.20
26035;DHT22;13809;48.632;11.576;2023-04-03T18:00:48;9.60;28.10
26035;DHT22;13809;48.632;11.576;2023-04-03T18:05:51;9.50;27.80
26035;DHT22;13809;48.632;11.576;2023-04-03T18:10:56;9.40;27.80
26035;DHT22;13809;48.632;11.576;2023-04-03T18:16:00;9.20;27.80
26035;DHT22;13809;48.632;11.576;2023-04-03T18:21:04;9.10;27.80
26035;DHT22;13809;48.632;11.576;2023-04-03T18:26:09;9.10;28.20
26035;DHT22;13809;48.632;11.576;2023-04-03T18:31:20;8.80;27.60
26035;DHT22;13809;48.632;11.576;2023-04-03T18:36:24;8.60;27.50
26035;DHT22;13809;48.632;11.576;2023-04-03T18:41:30;8.50;28.00
26035;DHT22;13809;48.632;11.576;2023-04-03T18:46:36;8.40;27.90
26035;DHT22;13809;48.632;11.576;2023-04-03T18:51:40;8.30;27.80
26035;DHT22;13809;48.632;11.576;2023-04-03T18:56:43;8.10;27.90
26035;DHT22;13809;48.632;11.576;2023-04-03T19:01:47;8.10;27.90
26035;DHT22;13809;48.632;11.576;2023-04-03T19:06:51;8.00;27.80
26035;DHT22;13809;48.632;11.576;2023-04-03T19:11:54;7.90;27.70
26035;DHT22;13809;48.632;11.576;2023-04-03T19:16:59;7.90;27.70
26035;DHT22;13809;48.632;11.576;2023-04-03T19:22:03;7.80;27.70
26035;DHT22;13809;48.632;11.576;2023-04-03T19:27:08;7.70;27.70
26035;DHT22;13809;48.632;11.576;2023-04-03T19:32:13;7.60;27.90
26035;DHT22;13809;48.632;11.576;2023-04-03T19:37:16;7.60;27.60
26035;DHT22;13809;48.632;11.576;2023-04-03T19:42:20;7.50;27.70
26035;DHT22;13809;48.632;11.576;2023-04-03T19:47:25;7.50;28.20
26035;DHT22;13809;48.632;11.576;2023-04-03T19:52:29;7.50;27.50
26035;DHT22;13809;48.632;11.576;2023-04-03T19:57:32;7.40;27.90
26035;DHT22;13809;48.632;11.576;2023-04-03T20:02:37;7.40;28.00
26035;DHT22;13809;48.632;11.576;2023-04-03T20:07:40;7.30;27.90
26035;DHT22;13809;48.632;11.576;2023-04-03T20:12:43;7.30;28.20
26035;DHT22;13809;48.632;11.576;2023-04-03T20:17:48;7.30;28.20
26035;DHT22;13809;48.632;11.576;2023-04-03T20:22:51;7.30;28.10
26035;DHT22;13809;48.632;11.576;2023-04-03T20:27:54;7.30;28.30
26035;DHT22;13809;48.632;11.576;2023-04-03T20:32:59;7.30;28.40
26035;DHT22;13809;48.632;11.576;2023-04-03T20:38:03;7.30;28.20
26035;DHT22;13809;48.632;11.576;2023-04-03T20:43:07;7.30;28.30
26035;DHT22;13809;48.632;11.576;2023-04-03T20:48:11;7.20;28.30
26035;DHT22;13809;48.632;11.576;2023-04-03T20:53:15;7.10;28.20
26035;DHT22;13809;48.632;11.576;2023-04-03T20:58:19;7.10;28.30
26035;DHT22;13809;48.632;11.576;2023-04-03T21:03:28;7.00;28.30
26035;DHT22;13809;48.632;11.576;2023-04-03T21:19:56;6.80;28.20
26035;DHT22;13809;48.632;11.576;2023-04-03T21:24:59;6.70;28.40
26035;DHT22;13809;48.632;11.576;2023-04-03T21:30:02;6.60;28.40
26035;DHT22;13809;48.632;11.576;2023-04-03T21:35:08;6.60;28.40
26035;DHT22;13809;48.632;11.576;2023-04-03T21:40:11;6.50;28.40
26035;DHT22;13809;48.632;11.576;2023-04-03T21:45:15;6.40;28.50
26035;DHT22;13809;48.632;11.576;2023-04-03T21:50:20;6.40;28.60
26035;DHT22;13809;48.632;11.576;2023-04-03T21:55:23;6.30;28.60
26035;DHT22;13809;48.632;11.576;2023-04-03T22:00:26;6.30;28.80
26035;DHT22;13809;48.632;11.576;2023-04-03T22:05:32;6.30;28.70
26035;DHT22;13809;48.632;11.576;2023-04-03T22:10:36;6.30;28.70
26035;DHT22;13809;48.632;11.576;2023-04-03T22:15:45;6.30;28.80
26035;DHT22;13809;48.632;11.576;2023-04-03T22:20:50;6.20;28.50
26035;DHT22;13809;48.632;11.576;2023-04-03T22:26:01;6.20;28.60
26035;DHT22;13809;48.632;11.576;2023-04-03T22:31:04;6.20;28.80
26035;DHT22;13809;48.632;11.576;2023-04-03T22:36:11;6.10;28.80
26035;DHT22;13809;48.632;11.576;2023-04-03T22:41:17;6.10;28.80
26035;DHT22;13809;48.632;11.576;2023-04-03T22:46:21;6.10;28.90
26035;DHT22;13809;48.632;11.576;2023-04-03T22:51:25;6.10;29.00
26035;DHT22;13809;48.632;11.576;2023-04-03T22:56:28;6.10;29.00
26035;DHT22;13809;48.632;11.576;2023-04-03T23:01:31;6.00;28.90
26035;DHT22;13809;48.632;11.576;2023-04-03T23:06:38;6.00;28.90
26035;DHT22;13809;48.632;11.576;2023-04-03T23:11:41;5.90;28.90
26035;DHT22;13809;48.632;11.576;2023-04-03T23:16:44;5.80;29.00
26035;DHT22;13809;48.632;11.576;2023-04-03T23:21:49;5.70;29.00
26035;DHT22;13809;48.632;11.576;2023-04-03T23:26:52;5.60;29.00
26035;DHT22;13809;48.632;11.576;2023-04-03T23:31:55;5.60;29.10
26035;DHT22;13809;48.632;11.576;2023-04-03T23:37:00;5.50;29.10
26035;DHT22;13809;48.632;11.576;2023-04-03T23:42:03;5.40;29.10
26035;DHT22;13809;48.632;11.576;2023-04-03T23:47:09;5.40;29.20
26035;DHT22;13809;48.632;11.576;2023-04-03T23:52:14;5.30;29.20
26035;DHT22;13809;48.632;11.576;2023-04-03T23:57:17;5.30;29.30
